createdAt,value
2023-01-24T00:01:08.651Z,104118.41
2023-01-24T00:03:36.940Z,104146.97
2023-01-24T00:06:05.118Z,104122.06
2023-01-24T00:08:31.973Z,104098.41
2023-01-24T00:10:59.903Z,104014.06
2023-01-24T00:13:27.364Z,103950.66
2023-01-24T00:16:18.366Z,103958.81
2023-01-24T00:18:45.775Z,103966.28
2023-01-24T00:21:16.891Z,104060.16
2023-01-24T00:23:46.714Z,104115.03
2023-01-24T00:26:14.598Z,104118.38
2023-01-24T00:28:41.695Z,104119.38
2023-01-24T00:31:11.513Z,103972.44
2023-01-24T00:33:38.554Z,104004.91
2023-01-24T00:36:06.371Z,104101.50
2023-01-24T00:38:34.138Z,104002.09
2023-01-24T00:41:02.237Z,103988.16
2023-01-24T00:43:29.971Z,104005.31
2023-01-24T00:45:57.967Z,104055.53
2023-01-24T00:48:27.194Z,104118.09
2023-01-24T00:50:54.694Z,104104.00
2023-01-24T00:53:22.026Z,104100.91
2023-01-24T00:55:49.346Z,103923.50
2023-01-24T00:58:16.542Z,104007.53
2023-01-24T01:00:43.349Z,104041.84
2023-01-24T01:03:14.044Z,104112.16
2023-01-24T01:05:43.169Z,104110.75
2023-01-24T01:08:10.620Z,104121.19
2023-01-24T01:10:38.257Z,104118.50
2023-01-24T01:13:05.686Z,104134.28
2023-01-24T01:15:33.362Z,104112.03
2023-01-24T01:18:01.683Z,103990.97
2023-01-24T01:20:28.804Z,103986.09
2023-01-24T01:22:57.269Z,103997.31
2023-01-24T01:25:24.543Z,104105.16
2023-01-24T01:27:51.541Z,104133.88
2023-01-24T01:30:18.620Z,103935.31
2023-01-24T01:32:46.843Z,104009.25
2023-01-24T01:35:13.716Z,104116.81
2023-01-24T01:37:41.006Z,103993.50
2023-01-24T01:40:11.970Z,104056.06
2023-01-24T01:42:45.741Z,104031.91
2023-01-24T01:45:36.638Z,104011.50
2023-01-24T01:48:13.300Z,104092.47
2023-01-24T01:50:44.035Z,104090.53
2023-01-24T01:53:11.587Z,103994.34
2023-01-24T01:55:45.738Z,104065.78
2023-01-24T01:58:12.614Z,104113.16
2023-01-24T02:00:39.743Z,104101.19
2023-01-24T02:03:12.914Z,104114.41
2023-01-24T02:05:40.051Z,103992.38
2023-01-24T02:08:09.164Z,104065.47
2023-01-24T02:10:36.300Z,104116.06
2023-01-24T02:13:05.748Z,104095.00
2023-01-24T02:15:32.703Z,103945.44
2023-01-24T02:18:00.333Z,104104.41
2023-01-24T02:20:41.077Z,104104.28
2023-01-24T02:23:25.452Z,104062.94
2023-01-24T02:26:03.404Z,104106.97
2023-01-24T02:28:31.821Z,104039.59
2023-01-24T02:30:59.367Z,104101.91
2023-01-24T02:33:27.013Z,104104.28
2023-01-24T02:36:14.274Z,104091.34
2023-01-24T02:38:44.501Z,103981.38
2023-01-24T02:41:14.769Z,104005.28
2023-01-24T02:43:50.996Z,103995.88
2023-01-24T02:46:17.945Z,103918.69
2023-01-24T02:48:44.673Z,104014.00
2023-01-24T02:51:11.768Z,103914.75
2023-01-24T02:53:41.232Z,103952.19
2023-01-24T02:56:10.230Z,103938.53
2023-01-24T02:58:38.621Z,103901.00
2023-01-24T03:01:09.114Z,103992.06
2023-01-24T03:03:36.013Z,104081.78
2023-01-24T03:06:03.242Z,104088.25
2023-01-24T03:08:35.284Z,103906.94
2023-01-24T03:11:02.628Z,103942.19
2023-01-24T03:13:29.442Z,103973.53
2023-01-24T03:16:00.514Z,104096.38
2023-01-24T03:18:27.404Z,104077.00
2023-01-24T03:20:54.921Z,103924.22
2023-01-24T03:23:21.788Z,104071.94
2023-01-24T03:25:48.696Z,104023.84
2023-01-24T03:28:15.516Z,104066.16
2023-01-24T03:30:42.490Z,104103.56
2023-01-24T03:33:10.739Z,104096.69
2023-01-24T03:35:37.490Z,104105.25
2023-01-24T03:38:04.450Z,103957.25
2023-01-24T03:40:34.328Z,104093.59
2023-01-24T03:43:02.023Z,104033.16
2023-01-24T03:45:31.445Z,104087.03
2023-01-24T03:48:01.680Z,104089.13
2023-01-24T03:50:31.991Z,104021.34
2023-01-24T03:53:01.682Z,104114.72
2023-01-24T03:55:28.663Z,104112.75
2023-01-24T03:57:57.890Z,104084.44
2023-01-24T04:00:24.931Z,103970.72
2023-01-24T04:02:52.001Z,104112.16
2023-01-24T04:05:18.761Z,103941.50
2023-01-24T04:07:49.039Z,104094.19
2023-01-24T04:10:16.409Z,104085.44
2023-01-24T04:12:44.680Z,104093.88
2023-01-24T04:15:16.574Z,104012.03
2023-01-24T04:17:44.549Z,104095.97
2023-01-24T04:20:12.442Z,104107.09
2023-01-24T04:22:39.164Z,103947.41
2023-01-24T04:25:09.756Z,103934.63
2023-01-24T04:27:37.310Z,104012.66
2023-01-24T04:30:05.339Z,104027.13
2023-01-24T04:32:35.875Z,104117.56
2023-01-24T04:35:03.546Z,104062.81
2023-01-24T04:37:30.785Z,103921.94
2023-01-24T04:39:58.115Z,104099.22
2023-01-24T04:42:26.342Z,104121.47
2023-01-24T04:44:53.294Z,104085.34
2023-01-24T04:47:20.265Z,104120.38
2023-01-24T04:49:47.453Z,104136.72
2023-01-24T04:52:14.803Z,103904.28
2023-01-24T04:54:41.571Z,104110.94
2023-01-24T04:57:11.935Z,103925.22
2023-01-24T04:59:40.362Z,104114.72
2023-01-24T05:02:07.306Z,104018.53
2023-01-24T05:04:35.112Z,103993.66
2023-01-24T05:07:03.330Z,104079.28
2023-01-24T05:09:30.114Z,104111.94
2023-01-24T05:11:57.008Z,104085.63
2023-01-24T05:14:23.897Z,104008.56
2023-01-24T05:16:52.142Z,104081.84
2023-01-24T05:19:19.448Z,104011.00
2023-01-24T05:21:46.400Z,104070.59
2023-01-24T05:24:13.739Z,104082.97
2023-01-24T05:26:40.889Z,104111.38
2023-01-24T05:29:08.845Z,104042.72
2023-01-24T05:31:37.010Z,104108.31
2023-01-24T05:34:05.396Z,104077.63
2023-01-24T05:36:32.670Z,104049.06
2023-01-24T05:38:59.435Z,103922.81
2023-01-24T05:41:26.271Z,104040.81
2023-01-24T05:43:53.517Z,104112.50
2023-01-24T05:46:22.458Z,104027.69
2023-01-24T05:48:50.205Z,104108.56
2023-01-24T05:51:23.711Z,104038.69
2023-01-24T05:53:50.803Z,104098.72
2023-01-24T05:56:19.940Z,104050.06
2023-01-24T05:58:48.147Z,104094.22
2023-01-24T06:01:16.918Z,103934.22
2023-01-24T06:03:46.296Z,104103.25
2023-01-24T06:06:16.603Z,104054.28
2023-01-24T06:08:45.323Z,104092.84
2023-01-24T06:11:14.954Z,104117.47
2023-01-24T06:13:42.423Z,104111.41
2023-01-24T06:16:13.053Z,104025.91
2023-01-24T06:18:40.639Z,104121.28
2023-01-24T06:21:09.445Z,104053.75
2023-01-24T06:23:37.079Z,104126.88
2023-01-24T06:26:10.117Z,104067.53
2023-01-24T06:28:37.997Z,103977.81
2023-01-24T06:31:11.038Z,104131.69
2023-01-24T06:33:52.365Z,104134.50
2023-01-24T06:36:36.415Z,103978.06
2023-01-24T06:39:06.087Z,104146.34
2023-01-24T06:41:39.315Z,104106.25
2023-01-24T06:44:07.255Z,104140.56
2023-01-24T06:46:34.316Z,104075.41
2023-01-24T06:49:01.080Z,104004.53
2023-01-24T06:51:28.429Z,104153.09
2023-01-24T06:53:55.280Z,104150.00
2023-01-24T06:56:24.881Z,104151.97
2023-01-24T06:58:55.781Z,104148.59
2023-01-24T07:01:22.573Z,104088.91
2023-01-24T07:03:49.744Z,104143.09
2023-01-24T07:06:19.011Z,104125.22
2023-01-24T07:08:46.065Z,104126.63
2023-01-24T07:11:12.792Z,104147.34
2023-01-24T07:13:39.886Z,104121.16
2023-01-24T07:16:08.655Z,104148.31
2023-01-24T07:18:36.375Z,104144.09
2023-01-24T07:21:06.612Z,104157.91
2023-01-24T07:23:35.510Z,104085.84
2023-01-24T07:26:03.405Z,104173.13
2023-01-24T07:28:30.666Z,104162.13
2023-01-24T07:30:57.391Z,104179.56
2023-01-24T07:33:26.693Z,104069.50
2023-01-24T07:35:54.035Z,104189.28
2023-01-24T07:38:22.652Z,104197.03
2023-01-24T07:40:49.781Z,104150.88
2023-01-24T07:43:16.768Z,104154.22
2023-01-24T07:45:47.145Z,104089.75
2023-01-24T07:48:13.893Z,104199.56
2023-01-24T07:50:42.067Z,104109.19
2023-01-24T07:53:08.762Z,104095.38
2023-01-24T07:55:35.806Z,104106.06
2023-01-24T07:58:04.023Z,104168.44
2023-01-24T08:00:31.546Z,104179.16
2023-01-24T08:02:58.830Z,104037.53
2023-01-24T08:05:26.944Z,104181.53
2023-01-24T08:07:57.039Z,104196.75
2023-01-24T08:10:24.389Z,104197.88
2023-01-24T08:12:55.815Z,104202.13
2023-01-24T08:15:22.763Z,104171.69
2023-01-24T08:17:49.716Z,104210.28
2023-01-24T08:20:17.038Z,104210.28
2023-01-24T08:22:57.228Z,104159.00
2023-01-24T08:25:27.042Z,104217.03
2023-01-24T08:27:54.775Z,104219.41
2023-01-24T08:30:22.275Z,104223.63
2023-01-24T08:32:49.704Z,104212.22
2023-01-24T08:35:16.634Z,104224.75
2023-01-24T08:37:44.942Z,104135.03
2023-01-24T08:40:12.604Z,104108.44
2023-01-24T08:42:40.975Z,104175.88
2023-01-24T08:45:09.071Z,104179.97
2023-01-24T08:47:35.796Z,104086.50
2023-01-24T08:50:02.720Z,104199.44
2023-01-24T08:52:32.587Z,104199.16
2023-01-24T08:54:59.381Z,104122.25
2023-01-24T08:57:26.167Z,104216.19
2023-01-24T08:59:54.881Z,104219.03
2023-01-24T09:02:21.669Z,104165.06
2023-01-24T09:04:48.537Z,104180.41
2023-01-24T09:07:15.619Z,104047.91
2023-01-24T09:09:44.214Z,104237.03
2023-01-24T09:12:11.215Z,104242.94
2023-01-24T09:14:38.480Z,104228.13
2023-01-24T09:17:07.227Z,104153.91
2023-01-24T09:19:33.984Z,104237.56
2023-01-24T09:22:00.768Z,104217.28
2023-01-24T09:24:28.258Z,104247.94
2023-01-24T09:26:55.343Z,104147.69
2023-01-24T09:29:22.307Z,104221.22
2023-01-24T09:31:49.382Z,104246.56
2023-01-24T09:34:17.858Z,104185.44
2023-01-24T09:36:48.704Z,104113.28
2023-01-24T09:39:16.154Z,104158.81
2023-01-24T09:42:10.011Z,104248.56
2023-01-24T09:44:44.844Z,104239.81
2023-01-24T09:47:19.559Z,104111.94
2023-01-24T09:49:56.143Z,104239.41
2023-01-24T09:52:31.036Z,104228.28
2023-01-24T09:55:04.649Z,104134.34
2023-01-24T09:57:42.805Z,104123.81
2023-01-24T10:00:18.904Z,104245.06
2023-01-24T10:02:45.731Z,104177.31
2023-01-24T10:05:17.349Z,104211.66
2023-01-24T10:08:03.714Z,104249.84
2023-01-24T10:10:43.889Z,104157.03
2023-01-24T10:13:32.204Z,104192.66
2023-01-24T10:16:10.365Z,104209.56
2023-01-24T10:18:50.862Z,104178.84
2023-01-24T10:21:47.243Z,104235.19
2023-01-24T10:24:19.169Z,104094.97
2023-01-24T10:26:49.162Z,104209.72
2023-01-24T10:29:20.198Z,104093.69
2023-01-24T10:31:55.087Z,104235.19
2023-01-24T10:34:32.354Z,104232.81
2023-01-24T10:37:06.425Z,104188.31
2023-01-24T10:39:34.061Z,104174.94
2023-01-24T10:42:01.860Z,104201.25
2023-01-24T10:44:38.285Z,104186.06
2023-01-24T10:47:38.564Z,104219.28
2023-01-24T10:50:10.467Z,104097.09
2023-01-24T10:52:39.149Z,104096.81
2023-01-24T10:55:25.483Z,104190.28
2023-01-24T10:57:53.733Z,104181.13
2023-01-24T11:00:28.410Z,104210.81
2023-01-24T11:02:56.690Z,104205.63
2023-01-24T11:05:25.666Z,104207.16
2023-01-24T11:08:00.234Z,104116.22
2023-01-24T11:10:28.953Z,104206.06
2023-01-24T11:12:59.077Z,104218.72
2023-01-24T11:15:28.038Z,104210.69
2023-01-24T11:17:57.311Z,104114.41
2023-01-24T11:20:33.978Z,104122.44
2023-01-24T11:23:16.091Z,104210.81
2023-01-24T11:26:00.907Z,104203.81
2023-01-24T11:28:29.198Z,104187.03
2023-01-24T11:30:57.775Z,104196.59
2023-01-24T11:33:41.239Z,104096.97
2023-01-24T11:36:34.169Z,104174.91
2023-01-24T11:39:14.714Z,104178.69
2023-01-24T11:41:50.493Z,104134.66
2023-01-24T11:44:43.512Z,104174.06
2023-01-24T11:47:15.156Z,104156.75
2023-01-24T11:50:18.145Z,104179.25
2023-01-24T11:53:08.560Z,104184.31
2023-01-24T11:55:46.536Z,104144.63
2023-01-24T11:58:35.955Z,104166.47
2023-01-24T12:01:13.250Z,104159.16
2023-01-24T12:03:58.144Z,104090.91
2023-01-24T12:06:36.013Z,104141.56
2023-01-24T12:09:18.101Z,104085.41
2023-01-24T12:11:56.070Z,104162.81
2023-01-24T12:14:58.788Z,104092.84
2023-01-24T12:17:56.079Z,104166.06
2023-01-24T12:20:42.042Z,104103.00
2023-01-24T12:23:20.318Z,104130.31
2023-01-24T12:25:50.825Z,104142.81
2023-01-24T12:28:27.960Z,104144.50
2023-01-24T12:30:58.473Z,104120.44
2023-01-24T12:33:31.382Z,104139.41
2023-01-24T12:36:02.661Z,104118.47
2023-01-24T12:38:32.805Z,104132.41
2023-01-24T12:41:07.324Z,104123.78
2023-01-24T12:43:52.493Z,104090.84
2023-01-24T12:46:27.063Z,104121.94
2023-01-24T12:49:14.606Z,104082.13
2023-01-24T12:51:46.857Z,104109.53
2023-01-24T12:54:17.859Z,104098.97
2023-01-24T12:56:51.876Z,104012.78
2023-01-24T12:59:25.520Z,104015.72
2023-01-24T13:02:39.024Z,103994.38
2023-01-24T13:05:18.936Z,104084.63
2023-01-24T13:07:55.801Z,103962.75
2023-01-24T13:10:29.709Z,104089.97
2023-01-24T13:13:00.209Z,104006.31
2023-01-24T13:15:37.858Z,104097.59
2023-01-24T13:18:17.134Z,104093.34
2023-01-24T13:20:55.923Z,104091.38
2023-01-24T13:23:47.753Z,104030.91
2023-01-24T13:26:44.245Z,104052.84
2023-01-24T13:29:22.536Z,104089.41
2023-01-24T13:32:06.753Z,103991.00
2023-01-24T13:34:37.046Z,104013.66
2023-01-24T13:37:05.125Z,103990.59
2023-01-24T13:39:34.416Z,103959.38
2023-01-24T13:42:04.491Z,103891.22
2023-01-24T13:44:33.594Z,104043.19
2023-01-24T13:47:05.438Z,103914.81
2023-01-24T13:49:46.591Z,104081.28
2023-01-24T13:52:45.247Z,104074.25
2023-01-24T13:55:54.957Z,104075.09
2023-01-24T13:58:25.709Z,103977.38
2023-01-24T14:00:58.390Z,103908.22
2023-01-24T14:03:30.559Z,104041.34
2023-01-24T14:06:07.308Z,104061.31
2023-01-24T14:08:44.448Z,103965.00
2023-01-24T14:11:22.572Z,103966.81
2023-01-24T14:13:58.956Z,104052.31
2023-01-24T14:16:57.683Z,104047.50
2023-01-24T14:19:32.373Z,104068.06
2023-01-24T14:22:05.726Z,103946.44
2023-01-24T14:24:36.496Z,104031.06
2023-01-24T14:27:18.282Z,103969.06
2023-01-24T14:29:48.939Z,104077.06
2023-01-24T14:32:24.188Z,104075.25
2023-01-24T14:35:04.160Z,104079.03
2023-01-24T14:37:32.116Z,104078.06
2023-01-24T14:40:13.187Z,104082.69
2023-01-24T14:42:40.708Z,104090.00
2023-01-24T14:45:17.404Z,104047.81
2023-01-24T14:47:48.224Z,104076.00
2023-01-24T14:50:29.200Z,104006.91
2023-01-24T14:52:56.809Z,104000.16
2023-01-24T14:55:35.852Z,104078.75
2023-01-24T14:58:16.915Z,104030.09
2023-01-24T15:00:43.816Z,104074.56
2023-01-24T15:03:16.544Z,104047.81
2023-01-24T15:05:51.573Z,104059.63
2023-01-24T15:08:18.913Z,104063.00
2023-01-24T15:10:45.960Z,103997.47
2023-01-24T15:13:20.967Z,104072.97
2023-01-24T15:15:48.221Z,104020.81
2023-01-24T15:18:31.367Z,104062.28
2023-01-24T15:21:00.467Z,104057.06
2023-01-24T15:23:33.409Z,103996.38
2023-01-24T15:26:38.697Z,104072.72
2023-01-24T15:29:40.451Z,104075.38
2023-01-24T15:32:30.580Z,104076.19
2023-01-24T15:35:28.619Z,104074.69
2023-01-24T15:38:25.695Z,104073.97
2023-01-24T15:41:13.933Z,104074.56
2023-01-24T15:43:47.799Z,104070.03
2023-01-24T15:46:20.887Z,104071.31
2023-01-24T15:48:57.397Z,104065.97
2023-01-24T15:51:31.375Z,104049.25
2023-01-24T15:53:59.728Z,103989.06
2023-01-24T15:56:35.319Z,103898.50
2023-01-24T15:59:02.548Z,104069.78
2023-01-24T16:01:31.922Z,104074.53
2023-01-24T16:04:12.521Z,104074.00
2023-01-24T16:06:39.185Z,104082.03
2023-01-24T16:09:07.626Z,104071.34
2023-01-24T16:11:35.559Z,104079.06
2023-01-24T16:14:05.392Z,104083.59
2023-01-24T16:16:35.393Z,104060.78
2023-01-24T16:19:02.212Z,103956.41
2023-01-24T16:21:29.254Z,104087.69
2023-01-24T16:23:55.988Z,104085.00
2023-01-24T16:26:26.466Z,104061.63
2023-01-24T16:28:53.655Z,104091.59
2023-01-24T16:31:22.202Z,104091.75
2023-01-24T16:33:49.434Z,104024.50
2023-01-24T16:36:22.809Z,103979.19
2023-01-24T16:39:06.266Z,104033.91
2023-01-24T16:41:46.437Z,104004.09
2023-01-24T16:44:13.960Z,104111.13
2023-01-24T16:46:50.343Z,104007.53
2023-01-24T16:49:18.052Z,103970.13
2023-01-24T16:51:46.327Z,104056.13
2023-01-24T16:54:17.138Z,103902.91
2023-01-24T16:56:45.459Z,104075.94
2023-01-24T16:59:14.538Z,104085.13
2023-01-24T17:01:41.751Z,103987.81
2023-01-24T17:04:10.023Z,104074.41
2023-01-24T17:06:36.821Z,104088.06
2023-01-24T17:09:07.397Z,104090.88
2023-01-24T17:11:35.114Z,103981.22
2023-01-24T17:14:04.469Z,103971.25
2023-01-24T17:16:33.559Z,104101.97
2023-01-24T17:19:01.636Z,104001.91
2023-01-24T17:21:28.818Z,104043.53
2023-01-24T17:23:55.946Z,103924.22
2023-01-24T17:26:23.265Z,104095.06
2023-01-24T17:28:50.173Z,104016.56
2023-01-24T17:31:20.553Z,104097.31
2023-01-24T17:33:47.813Z,104090.03
2023-01-24T17:36:19.083Z,103994.72
2023-01-24T17:38:53.463Z,104084.81
2023-01-24T17:41:23.909Z,104011.22
2023-01-24T17:43:53.338Z,103928.22
2023-01-24T17:46:22.294Z,104088.75
2023-01-24T17:48:50.852Z,103899.53
2023-01-24T17:51:19.451Z,103989.88
2023-01-24T17:53:48.668Z,103990.97
2023-01-24T17:56:17.496Z,103880.13
2023-01-24T17:58:45.432Z,103997.28
2023-01-24T18:01:18.245Z,104041.31
2023-01-24T18:03:46.908Z,103878.13
2023-01-24T18:06:13.930Z,103983.78
2023-01-24T18:08:41.572Z,104081.16
2023-01-24T18:11:15.569Z,103892.22
2023-01-24T18:13:42.951Z,104046.53
2023-01-24T18:16:14.430Z,104022.16
2023-01-24T18:18:42.363Z,104081.28
2023-01-24T18:21:15.189Z,104065.78
2023-01-24T18:23:43.384Z,104088.84
2023-01-24T18:26:12.962Z,103879.19
2023-01-24T18:28:40.566Z,103914.16
2023-01-24T18:31:31.725Z,103928.94
2023-01-24T18:33:59.057Z,103889.03
2023-01-24T18:36:30.885Z,103933.16
2023-01-24T18:39:02.250Z,103925.03
2023-01-24T18:41:31.957Z,104092.66
2023-01-24T18:43:59.925Z,104089.38
2023-01-24T18:46:28.960Z,103880.56
2023-01-24T18:48:56.553Z,104070.41
2023-01-24T18:51:24.265Z,103903.66
2023-01-24T18:53:53.976Z,104018.47
2023-01-24T18:56:21.380Z,103887.19
2023-01-24T18:58:51.516Z,103961.63
2023-01-24T19:03:46.943Z,103949.63
2023-01-24T19:06:17.571Z,103962.97
2023-01-24T19:09:01.377Z,104077.94
2023-01-24T19:11:39.148Z,104092.97
2023-01-24T19:14:08.501Z,103968.94
2023-01-24T19:16:39.321Z,104053.28
2023-01-24T19:19:07.900Z,104097.31
2023-01-24T19:21:39.280Z,103995.53
2023-01-24T19:24:07.150Z,103887.50
2023-01-24T19:26:35.983Z,103922.13
2023-01-24T19:29:03.473Z,103968.84
2023-01-24T19:31:32.695Z,104064.53
2023-01-24T19:34:01.048Z,103909.47
2023-01-24T19:36:28.704Z,103853.50
2023-01-24T19:38:59.530Z,103969.44
2023-01-24T19:41:32.289Z,103970.34
2023-01-24T19:44:21.273Z,104040.63
2023-01-24T19:46:51.132Z,103967.09
2023-01-24T19:49:34.010Z,103932.22
2023-01-24T19:52:01.804Z,104033.03
2023-01-24T19:54:28.780Z,104058.63
2023-01-24T19:56:55.661Z,104086.22
2023-01-24T19:59:24.459Z,103980.50
2023-01-24T20:01:51.542Z,104088.75
2023-01-24T20:04:24.786Z,103974.84
2023-01-24T20:06:53.810Z,104003.41
2023-01-24T20:09:23.674Z,103918.72
2023-01-24T20:11:52.088Z,104096.63
2023-01-24T20:14:34.050Z,104025.81
2023-01-24T20:17:04.619Z,103937.78
2023-01-24T20:19:31.990Z,103912.50
2023-01-24T20:22:03.498Z,103894.25
2023-01-24T20:24:33.000Z,104060.59
2023-01-24T20:27:02.870Z,103977.69
2023-01-24T20:29:33.667Z,103914.75
2023-01-24T20:32:11.849Z,103998.13
2023-01-24T20:34:39.466Z,104071.84
2023-01-24T20:37:06.461Z,104074.13
2023-01-24T20:39:33.422Z,104053.22
2023-01-24T20:42:00.266Z,103928.94
2023-01-24T20:44:34.509Z,104074.41
2023-01-24T20:47:05.887Z,104090.84
2023-01-24T20:49:35.206Z,104004.28
2023-01-24T20:52:02.182Z,104016.63
2023-01-24T20:54:29.280Z,104026.09
2023-01-24T20:56:56.269Z,104000.31
2023-01-24T20:59:29.619Z,104011.44
2023-01-24T21:02:02.601Z,104036.88
2023-01-24T21:04:45.380Z,103882.47
2023-01-24T21:07:14.592Z,103871.69
2023-01-24T21:09:44.533Z,103938.97
2023-01-24T21:12:14.381Z,103968.44
2023-01-24T21:14:42.804Z,103994.09
2023-01-24T21:17:10.476Z,104054.97
2023-01-24T21:19:38.730Z,103965.28
2023-01-24T21:22:06.786Z,103931.06
2023-01-24T21:24:34.261Z,104070.44
2023-01-24T21:27:05.010Z,103908.13
2023-01-24T21:29:32.111Z,103912.09
2023-01-24T21:32:00.057Z,103963.41
2023-01-24T21:34:30.617Z,104001.72
2023-01-24T21:36:59.244Z,103985.97
2023-01-24T21:39:29.230Z,103934.72
2023-01-24T21:41:58.497Z,103946.84
2023-01-24T21:44:30.111Z,103932.13
2023-01-24T21:46:57.372Z,103836.25
2023-01-24T21:49:30.696Z,103915.78
2023-01-24T21:52:03.165Z,103863.72
2023-01-24T21:54:32.425Z,104021.72
2023-01-24T21:57:01.167Z,104060.69
2023-01-24T21:59:33.623Z,103989.91
2023-01-24T22:02:02.284Z,103930.81
2023-01-24T22:04:32.435Z,103856.50
2023-01-24T22:07:02.848Z,104045.13
2023-01-24T22:09:30.706Z,103977.28
2023-01-24T22:12:07.079Z,104000.88
2023-01-24T22:14:35.241Z,103898.72
2023-01-24T22:17:07.063Z,104017.25
2023-01-24T22:19:42.239Z,104023.72
2023-01-24T22:22:54.596Z,104043.53
2023-01-24T22:25:50.355Z,104006.88
2023-01-24T22:28:20.002Z,103831.59
2023-01-24T22:30:48.001Z,104031.72
2023-01-24T22:33:18.004Z,104033.28
2023-01-24T22:35:47.620Z,104016.84
2023-01-24T22:38:14.567Z,103948.59
2023-01-24T22:40:42.944Z,103964.75
2023-01-24T22:43:11.694Z,103906.88
2023-01-24T22:45:38.637Z,103937.88
2023-01-24T22:48:12.104Z,103849.81
2023-01-24T22:50:39.156Z,103953.59
2023-01-24T22:53:08.230Z,103912.59
2023-01-24T22:55:37.555Z,103866.91
2023-01-24T22:58:04.700Z,103918.78
2023-01-24T23:00:34.564Z,103777.84
2023-01-24T23:03:01.586Z,104007.94
2023-01-24T23:05:28.958Z,104017.78
2023-01-24T23:08:00.254Z,104010.31
2023-01-24T23:10:26.997Z,104002.53
2023-01-24T23:12:53.744Z,103924.69
2023-01-24T23:15:20.770Z,103863.84
2023-01-24T23:17:52.500Z,103997.53
2023-01-24T23:20:19.675Z,103911.94
2023-01-24T23:22:46.977Z,104004.72
2023-01-24T23:25:14.277Z,103907.28
2023-01-24T23:27:41.076Z,103771.91
2023-01-24T23:30:25.112Z,103772.75
2023-01-24T23:33:00.447Z,103918.44
2023-01-24T23:35:27.379Z,103969.84
2023-01-24T23:37:54.701Z,103948.59
2023-01-24T23:40:21.505Z,103931.31
2023-01-24T23:42:49.934Z,103976.84
2023-01-24T23:45:18.954Z,103839.88
2023-01-24T23:47:46.312Z,103976.38
2023-01-24T23:50:16.414Z,103982.56
2023-01-24T23:52:46.531Z,103885.16
2023-01-24T23:55:15.070Z,103861.56
2023-01-24T23:57:42.077Z,103792.69
